Time;durP1;ratioP1;P1;durP2;ratioP2;P2;SDS_P1;SDS_P2;PMS_P1;PMS_P2;Temp;Humidity;BMP_temperature;BMP_pressure;BME280_temperature;BME280_humidity;BME280_pressure;Samples;Min_cycle;Max_cycle;Signal;HPM_P1;HPM_P2
2023/01/21 00:01:16;;;;;;;45.42;26.27;;;-3276.70;93.00;;;;;;5038217;28;20094;-81
2023/01/21 00:03:42;;;;;;;46.88;24.30;;;-3276.70;93.20;;;;;;5037928;28;20041;-82
2023/01/21 00:06:08;;;;;;;44.88;24.90;;;-3276.70;93.20;;;;;;5038233;28;20040;-80
2023/01/21 00:08:34;;;;;;;46.20;25.63;;;-3276.70;93.10;;;;;;5036090;28;20037;-81
2023/01/21 00:11:05;;;;;;;48.55;26.38;;;-3276.70;93.00;;;;;;5037710;28;20071;-82
2023/01/21 00:13:34;;;;;;;47.70;25.73;;;-3276.60;92.90;;;;;;5054664;28;20071;-82
2023/01/21 00:16:00;;;;;;;42.55;24.40;;;-3276.60;92.90;;;;;;5054637;28;20052;-81
2023/01/21 00:18:26;;;;;;;45.67;25.00;;;-3276.50;92.80;;;;;;5037596;28;20504;-82
2023/01/21 00:20:52;;;;;;;45.85;24.55;;;-3276.50;92.80;;;;;;5037612;28;20037;-84
2023/01/21 00:23:18;;;;;;;45.72;25.45;;;-3276.50;92.80;;;;;;5021118;28;20094;-82
2023/01/21 00:25:44;;;;;;;46.70;25.42;;;-3276.50;92.80;;;;;;5037122;28;20041;-82
2023/01/21 00:28:09;;;;;;;46.53;26.33;;;-3276.40;92.80;;;;;;5021101;28;20037;-81
2023/01/21 00:30:35;;;;;;;47.03;27.80;;;-3276.40;92.90;;;;;;5019799;28;20069;-81
2023/01/21 00:33:02;;;;;;;48.13;26.60;;;-3276.40;93.00;;;;;;5054039;28;20037;-83
2023/01/21 00:35:28;;;;;;;48.85;27.38;;;-3276.50;93.00;;;;;;5020908;28;20477;-82
2023/01/21 00:37:53;;;;;;;51.15;28.55;;;-3276.40;93.10;;;;;;5037543;28;20195;-81
2023/01/21 00:40:19;;;;;;;55.10;28.80;;;-3276.40;93.00;;;;;;5037337;28;20044;-84
2023/01/21 00:42:45;;;;;;;51.22;27.83;;;-3276.40;93.10;;;;;;5037244;28;20045;-82
2023/01/21 00:45:11;;;;;;;47.67;26.23;;;-3276.30;93.10;;;;;;5037331;28;20041;-82
2023/01/21 00:47:36;;;;;;;49.00;27.38;;;-3276.30;93.10;;;;;;5019813;28;20033;-83
2023/01/21 00:50:03;;;;;;;49.15;27.27;;;-3276.30;93.10;;;;;;5037077;28;20449;-83
2023/01/21 00:52:28;;;;;;;50.17;28.15;;;-3276.30;93.10;;;;;;5037124;28;20053;-81
2023/01/21 00:54:54;;;;;;;52.55;28.17;;;-3276.30;93.10;;;;;;5053949;28;20044;-82
2023/01/21 00:57:20;;;;;;;51.72;28.98;;;-3276.30;93.20;;;;;;5037004;28;20510;-82
2023/01/21 00:59:45;;;;;;;52.53;28.30;;;-3276.30;93.20;;;;;;5036850;28;20041;-83
2023/01/21 01:02:11;;;;;;;53.17;29.65;;;-3276.30;93.30;;;;;;5021056;28;20132;-81
2023/01/21 01:04:37;;;;;;;55.17;28.58;;;-3276.30;93.40;;;;;;5036095;28;20064;-82
2023/01/21 01:07:03;;;;;;;46.60;26.23;;;-3276.30;93.40;;;;;;5020511;28;20098;-82
2023/01/21 01:09:29;;;;;;;54.90;28.00;;;-3276.30;93.50;;;;;;5020228;28;20044;-82
2023/01/21 01:11:54;;;;;;;48.70;26.08;;;-3276.30;93.30;;;;;;5020034;28;20052;-82
2023/01/21 01:14:21;;;;;;;48.75;27.10;;;-3276.20;93.30;;;;;;5036705;28;20041;-82
2023/01/21 01:16:47;;;;;;;50.40;26.70;;;-3276.20;93.30;;;;;;5036798;28;20098;-81
2023/01/21 01:19:13;;;;;;;48.65;25.88;;;-3276.10;93.30;;;;;;5036792;28;20087;-81
2023/01/21 01:21:39;;;;;;;48.92;26.38;;;-3276.10;93.20;;;;;;5031356;28;20481;-82
2023/01/21 01:24:05;;;;;;;45.38;25.70;;;-3276.10;93.20;;;;;;5026571;28;20397;-81
2023/01/21 01:26:34;;;;;;;50.60;26.95;;;-3276.10;93.20;;;;;;5075258;28;20033;-82
2023/01/21 01:29:00;;;;;;;52.83;27.85;;;-3276.10;93.30;;;;;;5026898;28;20029;-82
2023/01/21 01:31:26;;;;;;;52.60;26.83;;;-3276.00;93.40;;;;;;5043029;28;20095;-82
2023/01/21 01:33:51;;;;;;;46.63;25.17;;;-3276.00;93.30;;;;;;5041227;28;20045;-81
2023/01/21 01:36:22;;;;;;;48.45;25.88;;;-3276.00;93.40;;;;;;5043198;28;20127;-80
2023/01/21 01:38:48;;;;;;;50.38;26.67;;;-3276.00;93.40;;;;;;5045201;28;20405;-82
2023/01/21 01:41:20;;;;;;;47.25;25.65;;;-3276.00;93.40;;;;;;5010901;28;20068;-84
2023/01/21 01:43:56;;;;;;;49.88;26.48;;;-3276.00;93.40;;;;;;5042895;28;20047;-82
2023/01/21 01:46:25;;;;;;;52.00;27.02;;;-3276.00;93.50;;;;;;5042690;28;20167;-82
2023/01/21 01:49:13;;;;;;;50.85;27.73;;;-3276.00;93.40;;;;;;5027804;28;20037;-81
2023/01/21 01:51:55;;;;;;;55.17;28.83;;;-3276.00;93.50;;;;;;5042839;28;20036;-82
2023/01/21 01:54:32;;;;;;;54.17;28.17;;;-3276.00;93.50;;;;;;5033529;28;20029;-82
2023/01/21 01:57:04;;;;;;;54.30;29.70;;;-3276.00;93.50;;;;;;5043354;28;20052;-84
2023/01/21 01:59:30;;;;;;;54.47;29.23;;;-3276.10;93.60;;;;;;5043288;28;20037;-83
2023/01/21 02:02:00;;;;;;;58.15;29.65;;;-3276.00;93.60;;;;;;5025121;28;20501;-83
2023/01/21 02:04:30;;;;;;;59.10;30.25;;;-3276.00;93.60;;;;;;5053421;28;20036;-83
2023/01/21 02:06:57;;;;;;;60.35;30.00;;;-3276.00;93.70;;;;;;5052158;28;20486;-83
2023/01/21 02:09:28;;;;;;;58.83;30.30;;;-3276.00;93.70;;;;;;5035964;28;20408;-82
2023/01/21 02:11:55;;;;;;;61.08;29.52;;;-3276.10;93.70;;;;;;5034567;28;20057;-82
2023/01/21 02:14:21;;;;;;;55.63;28.73;;;-3276.10;93.80;;;;;;5035726;28;20048;-84
2023/01/21 02:16:59;;;;;;;58.70;29.55;;;-3276.00;93.80;;;;;;5035652;28;20127;-84
2023/01/21 02:19:44;;;;;;;55.97;30.75;;;-3276.00;93.70;;;;;;5035537;28;20047;-80
2023/01/21 02:22:25;;;;;;;60.70;29.85;;;-3276.00;93.70;;;;;;5035376;28;20732;-82
2023/01/21 02:25:28;;;;;;;58.80;30.25;;;-3276.00;93.70;;;;;;5035371;28;20037;-80
2023/01/21 02:28:38;;;;;;;52.10;27.67;;;-3276.00;93.60;;;;;;5034611;28;20041;-82
2023/01/21 02:31:24;;;;;;;52.55;28.08;;;-3275.90;93.70;;;;;;5034839;28;20068;-82
2023/01/21 02:34:04;;;;;;;51.15;27.80;;;-3275.90;93.70;;;;;;5052053;28;20298;-82
2023/01/21 02:36:36;;;;;;;52.50;26.67;;;-3275.90;93.70;;;;;;5035469;28;20411;-85
2023/01/21 02:39:34;;;;;;;47.50;24.98;;;-3275.80;93.60;;;;;;5035227;28;20063;-83
2023/01/21 02:42:03;;;;;;;50.38;27.55;;;-3275.80;93.60;;;;;;5049528;28;20048;-82
2023/01/21 02:44:43;;;;;;;53.10;27.85;;;-3275.80;93.50;;;;;;5034463;28;20049;-83
2023/01/21 02:47:24;;;;;;;54.35;28.45;;;-3275.80;93.60;;;;;;5051689;28;20076;-82
2023/01/21 02:49:59;;;;;;;54.80;29.10;;;-3275.70;93.70;;;;;;5051966;28;20055;-84
2023/01/21 02:52:26;;;;;;;59.55;31.65;;;-3275.80;93.70;;;;;;5051831;28;20041;-80
2023/01/21 02:54:57;;;;;;;53.88;28.30;;;-3275.70;93.80;;;;;;5051605;28;20055;-83
2023/01/21 02:57:38;;;;;;;46.00;25.73;;;-3275.70;93.70;;;;;;5034912;28;20041;-81
2023/01/21 03:00:54;;;;;;;51.38;27.00;;;-3275.70;93.80;;;;;;5050868;28;20055;-81
2023/01/21 03:03:26;;;;;;;53.97;27.05;;;-3275.70;93.70;;;;;;5006621;28;20494;-82
2023/01/21 03:06:29;;;;;;;52.40;27.70;;;-3275.70;93.80;;;;;;5031725;28;20037;-82
2023/01/21 03:09:02;;;;;;;48.85;26.38;;;-3275.70;93.80;;;;;;5031868;28;20060;-82
2023/01/21 03:11:28;;;;;;;51.17;26.50;;;-3275.70;93.90;;;;;;5015052;28;20068;-81
2023/01/21 03:17:02;;;;;;;52.92;26.65;;;-3275.70;93.90;;;;;;5036436;28;20073;-83
2023/01/21 03:19:56;;;;;;;56.10;27.35;;;-3275.70;94.00;;;;;;5034757;28;20045;-81
2023/01/21 03:22:28;;;;;;;49.83;27.48;;;-3275.70;93.90;;;;;;5035178;28;20072;-81
2023/01/21 03:24:56;;;;;;;60.17;27.60;;;-3275.70;94.00;;;;;;5052102;28;20632;-81
2023/01/21 03:27:25;;;;;;;54.33;27.90;;;-3275.70;94.10;;;;;;5051782;28;20040;-82
2023/01/21 03:29:56;;;;;;;53.00;28.13;;;-3275.70;94.20;;;;;;5035112;28;20037;-81
2023/01/21 03:32:24;;;;;;;55.95;28.45;;;-3275.80;94.20;;;;;;5035190;28;20124;-81
2023/01/21 03:34:52;;;;;;;54.67;27.65;;;-3275.70;94.20;;;;;;5022780;28;20041;-83
2023/01/21 03:37:32;;;;;;;53.13;26.90;;;-3275.70;94.10;;;;;;5031780;28;20057;-81
2023/01/21 03:40:14;;;;;;;59.00;28.27;;;-3275.70;94.20;;;;;;5015501;28;20399;-82
2023/01/21 03:42:46;;;;;;;54.30;28.65;;;-3275.60;94.30;;;;;;5015177;28;20037;-80
2023/01/21 03:45:13;;;;;;;55.05;26.85;;;-3275.60;94.30;;;;;;5035085;28;20106;-81
2023/01/21 03:47:44;;;;;;;51.33;27.02;;;-3275.60;94.20;;;;;;5019219;28;20056;-82
2023/01/21 03:50:21;;;;;;;57.85;29.15;;;-3275.60;94.10;;;;;;5035764;28;20409;-81
2023/01/21 03:52:47;;;;;;;56.65;27.85;;;-3275.50;94.10;;;;;;5045987;28;20124;-82
2023/01/21 03:55:15;;;;;;;57.67;29.58;;;-3275.50;94.10;;;;;;5038656;28;20129;-83
2023/01/21 03:57:40;;;;;;;60.85;29.35;;;-3275.50;94.10;;;;;;5038606;28;20045;-82
2023/01/21 04:00:08;;;;;;;62.15;29.08;;;-3275.50;94.10;;;;;;5038515;28;20045;-81
2023/01/21 04:02:34;;;;;;;61.67;30.33;;;-3275.50;94.00;;;;;;5054995;28;20133;-82
2023/01/21 04:04:59;;;;;;;68.20;31.45;;;-3275.50;94.00;;;;;;5036972;28;20044;-80
2023/01/21 04:07:25;;;;;;;63.33;31.13;;;-3275.50;94.00;;;;;;5020532;28;20511;-81
2023/01/21 04:09:51;;;;;;;59.72;29.33;;;-3275.50;94.10;;;;;;5053497;28;20071;-82
2023/01/21 04:12:17;;;;;;;57.83;30.35;;;-3275.50;94.00;;;;;;5054554;28;20507;-81
2023/01/21 04:14:43;;;;;;;57.20;29.30;;;-3275.50;94.00;;;;;;5054195;28;20493;-82
2023/01/21 04:17:09;;;;;;;61.53;31.67;;;-3275.50;94.10;;;;;;5038047;28;20080;-83
2023/01/21 04:19:35;;;;;;;58.47;29.92;;;-3275.50;94.10;;;;;;5054292;28;20099;-80
2023/01/21 04:22:00;;;;;;;62.75;30.05;;;-3275.50;94.10;;;;;;5054504;28;20107;-81
2023/01/21 04:24:26;;;;;;;58.78;31.05;;;-3275.60;94.10;;;;;;5054114;28;20128;-83
2023/01/21 04:26:52;;;;;;;64.50;31.00;;;-3275.60;94.10;;;;;;5053358;28;20041;-81
2023/01/21 04:29:19;;;;;;;68.55;30.02;;;-3275.60;94.10;;;;;;5054381;28;20051;-82
2023/01/21 04:31:45;;;;;;;60.17;29.88;;;-3275.60;94.00;;;;;;5054107;28;20037;-81
2023/01/21 04:34:11;;;;;;;61.40;30.33;;;-3275.70;94.00;;;;;;5037397;28;20128;-85
2023/01/21 04:36:36;;;;;;;64.15;30.80;;;-3275.60;94.00;;;;;;5021019;28;20041;-84
2023/01/21 04:39:02;;;;;;;63.75;30.33;;;-3275.70;94.10;;;;;;5020791;28;20040;-84
2023/01/21 04:41:28;;;;;;;63.65;30.95;;;-3275.70;94.20;;;;;;5053889;28;20070;-81
2023/01/21 04:43:54;;;;;;;57.88;29.85;;;-3275.70;94.30;;;;;;5019706;28;20044;-83
2023/01/21 04:46:19;;;;;;;57.53;29.83;;;-3275.80;94.30;;;;;;5037222;28;20167;-79
2023/01/21 04:48:45;;;;;;;57.28;28.75;;;-3275.80;94.40;;;;;;5037382;28;20047;-82
2023/01/21 04:51:11;;;;;;;59.15;30.40;;;-3275.80;94.40;;;;;;5053793;28;20099;-82
2023/01/21 04:53:36;;;;;;;57.53;29.13;;;-3275.80;94.40;;;;;;5020574;28;20037;-82
2023/01/21 04:56:02;;;;;;;58.53;29.85;;;-3275.80;94.40;;;;;;5036743;28;20066;-83
2023/01/21 04:58:28;;;;;;;51.58;28.00;;;-3275.80;94.40;;;;;;5036135;28;20382;-80
2023/01/21 05:00:54;;;;;;;51.92;27.05;;;-3275.70;94.40;;;;;;5020517;28;20132;-82
2023/01/21 05:03:20;;;;;;;51.30;26.80;;;-3275.70;94.40;;;;;;5053419;28;20041;-82
2023/01/21 05:05:46;;;;;;;63.10;30.17;;;-3275.60;94.20;;;;;;5037107;28;20389;-83
2023/01/21 05:08:12;;;;;;;58.85;30.98;;;-3275.60;94.40;;;;;;5037112;28;20033;-84
2023/01/21 05:10:37;;;;;;;63.55;31.35;;;-3275.70;94.50;;;;;;5020131;28;20448;-84
2023/01/21 05:13:03;;;;;;;66.72;32.83;;;-3275.70;94.80;;;;;;5053237;28;20047;-84
2023/01/21 05:15:29;;;;;;;59.97;30.45;;;-3275.70;94.70;;;;;;5052206;28;20044;-81
2023/01/21 05:17:55;;;;;;;60.70;30.90;;;-3275.80;94.80;;;;;;5036855;28;20037;-82
2023/01/21 05:20:21;;;;;;;63.42;30.92;;;-3275.90;94.90;;;;;;5036580;28;20041;-80
2023/01/21 05:22:47;;;;;;;61.78;32.40;;;-3275.90;94.90;;;;;;5036720;28;20124;-83
2023/01/21 05:25:14;;;;;;;65.10;33.03;;;-3275.90;94.90;;;;;;5020128;28;20033;-81
2023/01/21 05:27:40;;;;;;;68.07;32.28;;;-3276.00;94.90;;;;;;5036749;28;20394;-84
2023/01/21 05:30:06;;;;;;;63.72;32.75;;;-3276.00;94.80;;;;;;5052930;28;20062;-82
2023/01/21 05:32:32;;;;;;;61.70;33.53;;;-3276.00;94.80;;;;;;5052052;28;20080;-82
2023/01/21 05:34:58;;;;;;;69.18;33.58;;;-3276.10;94.90;;;;;;5053012;28;20508;-83
2023/01/21 05:37:23;;;;;;;70.03;32.40;;;-3276.10;95.00;;;;;;5036548;28;20045;-81
2023/01/21 05:39:49;;;;;;;65.35;32.60;;;-3276.20;95.00;;;;;;5019977;28;20503;-81
2023/01/21 05:42:15;;;;;;;60.13;30.83;;;-3276.20;94.80;;;;;;5052952;28;20132;-82
2023/01/21 05:44:40;;;;;;;72.68;35.47;;;-3276.20;95.30;;;;;;5019589;28;20539;-81
2023/01/21 05:47:07;;;;;;;68.28;33.45;;;-3276.30;95.50;;;;;;5036106;28;20095;-80
2023/01/21 05:49:34;;;;;;;67.20;33.55;;;-3276.30;95.60;;;;;;5035373;28;20035;-82
2023/01/21 05:51:59;;;;;;;73.65;35.55;;;-3276.30;95.90;;;;;;5036161;28;20037;-82
2023/01/21 05:54:25;;;;;;;67.22;33.08;;;-3276.30;95.70;;;;;;5019645;28;20545;-81
2023/01/21 05:56:51;;;;;;;79.88;35.42;;;-3276.40;95.20;;;;;;5019622;28;20590;-83
2023/01/21 05:59:16;;;;;;;70.03;35.28;;;-3276.40;95.20;;;;;;5052393;28;20072;-80
2023/01/21 06:01:42;;;;;;;77.18;36.72;;;-3276.40;95.10;;;;;;5036069;28;20124;-81
2023/01/21 06:04:08;;;;;;;76.35;35.15;;;-3276.40;94.90;;;;;;5019292;28;20040;-81
2023/01/21 06:06:34;;;;;;;71.38;35.17;;;-3276.40;95.00;;;;;;5050577;28;20127;-81
2023/01/21 06:08:59;;;;;;;79.65;37.83;;;-3276.40;95.10;;;;;;5052394;28;20045;-81
2023/01/21 06:11:25;;;;;;;72.45;35.55;;;-3276.40;95.20;;;;;;5019155;28;20053;-81
2023/01/21 06:13:51;;;;;;;76.78;36.10;;;-3276.50;95.30;;;;;;5035834;28;20045;-83
2023/01/21 06:16:16;;;;;;;71.90;34.70;;;-3276.50;95.20;;;;;;5035873;28;20045;-82
2023/01/21 06:18:42;;;;;;;69.95;33.28;;;-3276.50;95.10;;;;;;5036046;28;20036;-83
2023/01/21 06:21:07;;;;;;;83.40;36.83;;;-3276.50;95.20;;;;;;5019077;28;20489;-83
2023/01/21 06:23:33;;;;;;;65.80;32.30;;;-3276.50;95.30;;;;;;5017835;28;20087;-81
2023/01/21 06:25:59;;;;;;;69.13;33.60;;;-3276.50;95.20;;;;;;5052005;28;20033;-82
2023/01/21 06:28:25;;;;;;;75.60;37.10;;;-3276.60;95.00;;;;;;5035620;28;20033;-81
2023/01/21 06:30:51;;;;;;;74.13;36.60;;;-3276.50;94.90;;;;;;5035646;28;20036;-83
2023/01/21 06:33:17;;;;;;;76.78;38.13;;;-3276.50;95.20;;;;;;5051957;28;20041;-83
2023/01/21 06:35:42;;;;;;;72.90;35.15;;;-3276.50;95.30;;;;;;5051916;28;20090;-83
2023/01/21 06:38:08;;;;;;;72.07;35.28;;;-3276.50;95.30;;;;;;5035287;28;20048;-84
2023/01/21 06:40:34;;;;;;;68.53;35.88;;;-3276.50;95.40;;;;;;5018429;28;20041;-83
2023/01/21 06:42:59;;;;;;;76.07;36.88;;;-3276.50;95.50;;;;;;5018773;28;20493;-82
2023/01/21 06:45:25;;;;;;;79.10;39.00;;;-3276.50;95.30;;;;;;5051735;28;20047;-83
2023/01/21 06:47:51;;;;;;;75.30;36.47;;;-3276.50;95.20;;;;;;5051868;28;20485;-79
2023/01/21 06:50:17;;;;;;;69.88;33.75;;;-3276.40;95.20;;;;;;5035266;28;20040;-82
2023/01/21 06:52:45;;;;;;;74.95;35.33;;;-3276.40;95.10;;;;;;5019230;28;20103;-82
2023/01/21 06:55:12;;;;;;;72.40;36.25;;;-3276.40;95.20;;;;;;5036877;28;20051;-83
2023/01/21 06:57:38;;;;;;;71.80;35.25;;;-3276.30;95.20;;;;;;5035025;28;20051;-83
2023/01/21 07:00:06;;;;;;;74.07;35.80;;;-3276.30;95.10;;;;;;5048284;28;20277;-83
2023/01/21 07:02:32;;;;;;;72.18;36.33;;;-3276.30;95.20;;;;;;5031604;28;20046;-82
2023/01/21 07:04:57;;;;;;;71.82;35.13;;;-3276.30;95.10;;;;;;5031813;28;20116;-83
2023/01/21 07:07:23;;;;;;;68.00;35.10;;;-3276.30;95.10;;;;;;5015548;28;20041;-79
2023/01/21 07:09:49;;;;;;;73.68;36.10;;;-3276.30;95.10;;;;;;5031506;28;20044;-81
2023/01/21 07:12:15;;;;;;;75.47;35.70;;;-3276.30;95.10;;;;;;5032165;28;20124;-80
2023/01/21 07:14:40;;;;;;;70.95;35.83;;;-3276.20;95.10;;;;;;5047430;28;20470;-80
2023/01/21 07:17:06;;;;;;;69.60;36.58;;;-3276.20;95.10;;;;;;5035325;28;20087;-81
2023/01/21 07:19:32;;;;;;;71.13;35.50;;;-3276.30;95.00;;;;;;5055480;28;20037;-80
2023/01/21 07:21:58;;;;;;;74.93;36.60;;;-3276.30;95.10;;;;;;5038695;28;20048;-80
2023/01/21 07:24:23;;;;;;;72.22;36.90;;;-3276.20;95.10;;;;;;5055300;28;20045;-81
2023/01/21 07:26:49;;;;;;;78.85;37.75;;;-3276.20;95.20;;;;;;5039098;28;20041;-81
2023/01/21 07:29:15;;;;;;;69.40;38.15;;;-3276.30;95.20;;;;;;5055559;28;20040;-81
2023/01/21 07:31:40;;;;;;;80.28;38.65;;;-3276.20;95.20;;;;;;5037748;28;20067;-79
2023/01/21 07:34:06;;;;;;;85.13;42.47;;;-3276.20;95.30;;;;;;5038441;28;20049;-80
2023/01/21 07:36:32;;;;;;;93.00;44.05;;;-3276.20;95.30;;;;;;5038440;28;20041;-80
2023/01/21 07:38:58;;;;;;;83.47;41.20;;;-3276.20;95.40;;;;;;5038657;28;20108;-80
2023/01/21 07:41:23;;;;;;;71.97;36.35;;;-3276.30;95.40;;;;;;5037965;28;20052;-84
2023/01/21 07:43:50;;;;;;;78.72;41.55;;;-3276.30;95.30;;;;;;5038116;28;20040;-81
2023/01/21 07:46:17;;;;;;;77.40;41.05;;;-3276.30;95.40;;;;;;5054857;28;20037;-81
2023/01/21 07:48:43;;;;;;;86.55;39.50;;;-3276.30;95.40;;;;;;5037472;28;20037;-82
2023/01/21 07:51:08;;;;;;;74.30;39.17;;;-3276.40;95.50;;;;;;5021730;28;20037;-83
2023/01/21 07:53:34;;;;;;;73.78;39.67;;;-3276.30;95.50;;;;;;5038318;28;20037;-82
2023/01/21 07:56:06;;;;;;;74.05;36.45;;;-3276.30;95.40;;;;;;5021706;28;20044;-80
2023/01/21 07:58:33;;;;;;;70.65;36.60;;;-3276.40;95.50;;;;;;5038089;28;20128;-83
2023/01/21 08:01:01;;;;;;;74.60;38.33;;;-3276.40;95.50;;;;;;5054945;28;20064;-80
2023/01/21 08:03:27;;;;;;;71.57;35.90;;;-3276.40;95.40;;;;;;5053710;28;20041;-82
2023/01/21 08:05:52;;;;;;;103.07;53.63;;;-3276.40;95.30;;;;;;5021543;28;20499;-83
2023/01/21 08:08:18;;;;;;;83.72;44.10;;;-3276.50;95.20;;;;;;5054502;28;20091;-79
2023/01/21 08:10:49;;;;;;;81.05;41.30;;;-3276.50;95.20;;;;;;5037580;28;20106;-81
2023/01/21 08:13:16;;;;;;;80.43;41.47;;;-3276.50;95.20;;;;;;5037927;28;20452;-82
2023/01/21 08:15:41;;;;;;;75.93;38.75;;;-3276.50;95.20;;;;;;5021370;28;20052;-81
2023/01/21 08:18:07;;;;;;;80.88;38.83;;;-3276.50;95.20;;;;;;5037703;28;20068;-81
2023/01/21 08:20:33;;;;;;;73.13;35.47;;;-3276.60;95.20;;;;;;5020514;28;20056;-82
2023/01/21 08:22:59;;;;;;;75.50;38.35;;;-3276.60;95.20;;;;;;5051373;28;20128;-80
2023/01/21 08:25:25;;;;;;;72.68;35.88;;;-3276.60;95.30;;;;;;5034440;28;20119;-84
2023/01/21 08:27:51;;;;;;;76.05;37.38;;;-3276.60;95.20;;;;;;5042754;28;20060;-81
2023/01/21 08:30:17;;;;;;;77.63;37.40;;;-3276.60;95.20;;;;;;5043972;28;20036;-80
2023/01/21 08:32:42;;;;;;;69.40;33.53;;;-3276.60;95.20;;;;;;5046421;28;20049;-83
2023/01/21 08:35:08;;;;;;;76.25;37.50;;;-3276.60;95.20;;;;;;5052889;28;20045;-82
2023/01/21 08:37:34;;;;;;;69.70;35.72;;;-3276.70;95.20;;;;;;5029008;28;20041;-81
2023/01/21 08:40:00;;;;;;;72.68;35.50;;;-3276.70;95.30;;;;;;5036261;28;20049;-80
2023/01/21 08:42:26;;;;;;;75.78;38.00;;;0.00;95.30;;;;;;5034103;28;20042;-82
2023/01/21 08:44:52;;;;;;;80.80;40.53;;;0.00;95.30;;;;;;5042266;28;20044;-83
2023/01/21 08:47:18;;;;;;;81.85;40.45;;;0.00;95.20;;;;;;5050787;28;20049;-81
2023/01/21 08:49:44;;;;;;;72.82;35.35;;;0.00;95.20;;;;;;5053670;28;20037;-81
2023/01/21 08:52:10;;;;;;;72.22;35.40;;;0.00;95.20;;;;;;5046378;28;20033;-80
2023/01/21 08:54:35;;;;;;;67.28;36.75;;;0.00;95.10;;;;;;5042196;28;20033;-80
2023/01/21 08:57:01;;;;;;;69.07;34.83;;;0.00;95.20;;;;;;5028309;28;20030;-80
2023/01/21 08:59:27;;;;;;;72.13;37.15;;;0.00;95.20;;;;;;5036999;28;20036;-81
2023/01/21 09:01:54;;;;;;;73.82;35.45;;;0.00;95.20;;;;;;5052706;28;20224;-82
2023/01/21 09:04:20;;;;;;;72.28;36.00;;;0.00;95.20;;;;;;5020378;28;20041;-81
2023/01/21 09:06:45;;;;;;;75.43;35.50;;;0.00;95.30;;;;;;5037183;28;20091;-78
2023/01/21 09:09:11;;;;;;;73.43;40.05;;;0.10;95.30;;;;;;5036811;28;20067;-83
2023/01/21 09:11:37;;;;;;;97.88;51.88;;;0.10;95.40;;;;;;5020316;28;20083;-77
2023/01/21 09:14:03;;;;;;;74.45;38.33;;;0.10;95.30;;;;;;5020108;28;20037;-80
2023/01/21 09:16:32;;;;;;;77.53;39.75;;;0.20;95.30;;;;;;5036862;28;20053;-81
2023/01/21 09:18:59;;;;;;;71.32;37.03;;;0.20;95.20;;;;;;5047338;28;20047;-78
2023/01/21 09:21:25;;;;;;;74.60;36.50;;;0.20;95.20;;;;;;5033313;28;20045;-80
2023/01/21 09:23:51;;;;;;;67.55;34.72;;;0.20;95.20;;;;;;5016689;28;20049;-81
2023/01/21 09:26:19;;;;;;;67.50;35.50;;;0.20;95.20;;;;;;5016959;28;20108;-82
2023/01/21 09:28:50;;;;;;;75.50;38.45;;;0.20;95.20;;;;;;5033200;28;20048;-82
2023/01/21 09:31:17;;;;;;;72.78;38.40;;;0.30;95.20;;;;;;5033424;28;20068;-81
2023/01/21 09:33:46;;;;;;;71.30;36.17;;;0.40;95.20;;;;;;5032888;28;20079;-78
2023/01/21 09:36:15;;;;;;;73.25;36.10;;;0.40;95.20;;;;;;5051518;28;20726;-80
2023/01/21 09:38:44;;;;;;;68.10;36.00;;;0.40;95.20;;;;;;5053113;28;20045;-81
2023/01/21 09:41:24;;;;;;;69.63;37.05;;;0.50;95.10;;;;;;5035193;28;20052;-79
2023/01/21 09:43:58;;;;;;;67.22;36.33;;;0.50;95.10;;;;;;5052593;28;20041;-80
2023/01/21 09:47:04;;;;;;;65.38;33.88;;;0.60;95.10;;;;;;5052735;28;20044;-80
2023/01/21 09:49:38;;;;;;;72.75;36.13;;;0.60;95.00;;;;;;5052889;28;20393;-78
2023/01/21 09:52:07;;;;;;;68.85;34.70;;;0.60;94.90;;;;;;5051794;28;20033;-81
2023/01/21 09:54:34;;;;;;;63.10;33.78;;;0.60;94.90;;;;;;5032654;28;20103;-81
2023/01/21 09:57:33;;;;;;;68.97;34.47;;;0.70;94.90;;;;;;5033664;28;20494;-81
2023/01/21 10:00:21;;;;;;;68.05;35.13;;;0.90;94.90;;;;;;5049737;28;20037;-80
2023/01/21 10:03:28;;;;;;;61.45;32.80;;;1.00;94.80;;;;;;5032446;28;20045;-81
2023/01/21 10:06:24;;;;;;;61.60;32.70;;;1.10;94.80;;;;;;5032843;28;20044;-81
2023/01/21 10:08:59;;;;;;;61.28;32.20;;;1.20;94.60;;;;;;5037066;28;20090;-81
2023/01/21 10:11:58;;;;;;;64.07;32.38;;;1.20;94.50;;;;;;5053675;28;20049;-84
2023/01/21 10:15:04;;;;;;;61.33;32.78;;;1.30;94.50;;;;;;5036655;28;20481;-82
2023/01/21 10:17:53;;;;;;;60.60;32.00;;;1.40;94.40;;;;;;5052435;28;20073;-80
2023/01/21 10:20:47;;;;;;;57.92;31.75;;;1.60;94.40;;;;;;5035709;28;20076;-83
2023/01/21 10:23:27;;;;;;;64.03;32.42;;;1.70;94.40;;;;;;5035493;28;20120;-82
2023/01/21 10:25:55;;;;;;;60.10;33.10;;;1.80;94.30;;;;;;5032133;28;20160;-78
2023/01/21 10:28:27;;;;;;;55.72;30.02;;;1.90;94.30;;;;;;5040430;28;20600;-82
2023/01/21 10:31:03;;;;;;;56.40;30.90;;;2.00;94.30;;;;;;5049086;28;20164;-81
2023/01/21 10:33:32;;;;;;;59.17;32.28;;;2.20;94.30;;;;;;5031871;28;20079;-81
2023/01/21 10:36:29;;;;;;;57.28;30.45;;;2.30;94.20;;;;;;4999211;28;20052;-80
2023/01/21 10:39:06;;;;;;;55.97;30.60;;;2.60;94.30;;;;;;5048855;28;20493;-82
2023/01/21 10:41:55;;;;;;;50.72;28.45;;;2.60;94.20;;;;;;5048887;28;20111;-82
2023/01/21 10:44:32;;;;;;;50.40;28.55;;;2.70;94.00;;;;;;5035211;28;20123;-82
2023/01/21 10:47:36;;;;;;;53.58;28.65;;;2.80;93.90;;;;;;5035677;28;20060;-81
2023/01/21 10:50:37;;;;;;;48.90;28.90;;;2.90;93.70;;;;;;5043286;28;20037;-85
2023/01/21 10:53:12;;;;;;;54.13;28.13;;;3.00;93.70;;;;;;5031264;28;20037;-82
2023/01/21 10:55:55;;;;;;;40.85;24.70;;;3.20;93.70;;;;;;5031811;28;20486;-82
2023/01/21 10:58:24;;;;;;;45.97;25.55;;;3.30;93.60;;;;;;5031859;28;20038;-82
2023/01/21 11:00:51;;;;;;;44.28;26.77;;;3.40;93.60;;;;;;5031878;28;20457;-82
2023/01/21 11:03:46;;;;;;;43.88;26.88;;;3.50;93.30;;;;;;5048315;28;20041;-82
2023/01/21 11:06:16;;;;;;;47.75;28.27;;;3.60;93.30;;;;;;5051911;28;20037;-82
2023/01/21 11:08:45;;;;;;;40.65;24.30;;;3.70;93.00;;;;;;5052003;28;20111;-83
2023/01/21 11:11:12;;;;;;;40.08;23.83;;;3.80;93.20;;;;;;5034721;28;20053;-82
2023/01/21 11:13:40;;;;;;;40.83;22.73;;;4.00;93.00;;;;;;5031820;28;20104;-84
2023/01/21 11:16:06;;;;;;;36.42;20.20;;;4.10;92.80;;;;;;5033999;28;20107;-79
2023/01/21 11:18:39;;;;;;;35.17;20.75;;;4.20;92.50;;;;;;5042474;28;20045;-84
2023/01/21 11:21:23;;;;;;;32.38;19.25;;;4.30;92.20;;;;;;5034938;28;20041;-82
2023/01/21 11:23:56;;;;;;;30.40;19.35;;;4.40;92.10;;;;;;5041078;28;20132;-82
2023/01/21 11:26:27;;;;;;;33.10;18.55;;;4.50;92.00;;;;;;5014881;28;20386;-79
2023/01/21 11:29:14;;;;;;;27.17;17.90;;;4.60;91.70;;;;;;5030260;28;20367;-81
2023/01/21 11:31:42;;;;;;;28.98;17.67;;;4.60;92.80;;;;;;5031064;28;20041;-82
2023/01/21 11:34:20;;;;;;;25.50;16.42;;;4.70;91.90;;;;;;5030500;28;20148;-80
2023/01/21 11:37:05;;;;;;;26.70;16.95;;;4.80;91.40;;;;;;5031109;28;20081;-82
2023/01/21 11:39:38;;;;;;;26.63;17.08;;;4.90;91.30;;;;;;5030945;28;20508;-82
2023/01/21 11:42:14;;;;;;;28.63;18.13;;;5.00;91.40;;;;;;5047574;28;20490;-80
2023/01/21 11:45:00;;;;;;;26.85;16.75;;;5.10;90.80;;;;;;5047828;28;20209;-81
2023/01/21 11:47:47;;;;;;;22.80;15.02;;;5.20;90.70;;;;;;5031267;28;20037;-79
2023/01/21 11:50:18;;;;;;;21.48;15.23;;;5.30;90.70;;;;;;5031184;28;20045;-81
2023/01/21 11:52:44;;;;;;;21.08;14.10;;;5.50;89.80;;;;;;5020194;28;20072;-81
2023/01/21 11:55:19;;;;;;;20.48;14.02;;;5.60;89.50;;;;;;5018066;28;20076;-82
2023/01/21 11:57:52;;;;;;;22.80;13.77;;;5.80;88.90;;;;;;5052512;28;20084;-81
2023/01/21 12:00:20;;;;;;;19.38;12.85;;;5.90;88.10;;;;;;5051675;28;20528;-82
2023/01/21 12:02:50;;;;;;;18.88;13.30;;;6.10;87.70;;;;;;5033519;28;20123;-83
2023/01/21 12:05:33;;;;;;;18.13;12.98;;;6.20;87.60;;;;;;5052934;28;20095;-83
2023/01/21 12:07:59;;;;;;;17.40;13.07;;;6.30;87.30;;;;;;5038460;28;20045;-81
2023/01/21 12:10:40;;;;;;;20.48;13.57;;;6.50;86.60;;;;;;5020931;28;20041;-82
2023/01/21 12:13:31;;;;;;;17.60;11.40;;;6.60;85.10;;;;;;5037931;28;20053;-82
2023/01/21 12:16:19;;;;;;;16.42;11.23;;;6.80;85.40;;;;;;5054685;28;20044;-81
2023/01/21 12:19:17;;;;;;;18.58;13.18;;;7.00;84.00;;;;;;5054410;28;20072;-80
2023/01/21 12:22:05;;;;;;;17.83;13.10;;;7.30;83.90;;;;;;5019223;28;20048;-83
2023/01/21 12:24:49;;;;;;;18.55;12.30;;;7.40;83.30;;;;;;5054131;28;20041;-82
2023/01/21 12:27:54;;;;;;;16.58;11.85;;;7.50;81.30;;;;;;5037386;28;20029;-79
2023/01/21 12:30:22;;;;;;;17.63;12.60;;;7.60;83.10;;;;;;5054747;28;20041;-79
2023/01/21 12:33:12;;;;;;;19.05;13.48;;;7.80;81.70;;;;;;5054753;28;20413;-80